Time;durP1;ratioP1;P1;durP2;ratioP2;P2;SDS_P1;SDS_P2;PMS_P1;PMS_P2;Temp;Humidity;BMP_temperature;BMP_pressure;BME280_temperature;BME280_humidity;BME280_pressure;Samples;Min_cycle;Max_cycle;Signal;HPM_P1;HPM_P2
2022/06/30 00:02:26;;;;;;;7.33;6.30;;;;;;;;;;5055048;28;20473;-77
2022/06/30 00:04:53;;;;;;;6.50;5.97;;;;;;;;;;5055094;28;20445;-78
2022/06/30 00:07:20;;;;;;;8.10;6.70;;;;;;;;;;5054391;28;20531;-77
2022/06/30 00:09:47;;;;;;;6.93;6.23;;;;;;;;;;5055089;28;20495;-78
2022/06/30 00:12:14;;;;;;;8.90;6.33;;;;;;;;;;5054990;28;20466;-77
2022/06/30 00:14:42;;;;;;;6.23;5.83;;;;;;;;;;5054864;28;20449;-77
2022/06/30 00:17:10;;;;;;;7.20;6.60;;;;;;;;;;5055539;28;20437;-77
2022/06/30 00:19:37;;;;;;;6.43;5.90;;;;;;;;;;5055087;28;20480;-77
2022/06/30 00:22:07;;;;;;;6.57;6.07;;;;;;;;;;5054294;28;20483;-77
2022/06/30 00:24:34;;;;;;;6.80;5.90;;;;;;;;;;5054739;28;20449;-77
2022/06/30 00:27:01;;;;;;;6.77;6.27;;;;;;;;;;5056633;28;20489;-77
2022/06/30 00:29:28;;;;;;;6.93;6.27;;;;;;;;;;5056883;28;20523;-77
2022/06/30 00:31:56;;;;;;;7.40;6.90;;;;;;;;;;5056197;28;20465;-78
2022/06/30 00:34:24;;;;;;;7.00;6.43;;;;;;;;;;5055174;28;20448;-77
2022/06/30 00:36:51;;;;;;;7.20;6.70;;;;;;;;;;5056072;28;20487;-77
2022/06/30 00:39:18;;;;;;;7.33;6.63;;;;;;;;;;5054993;28;20449;-77
2022/06/30 00:41:45;;;;;;;8.10;7.40;;;;;;;;;;5056603;28;20465;-77
2022/06/30 00:44:12;;;;;;;8.13;7.33;;;;;;;;;;5058932;28;20452;-77
2022/06/30 00:46:39;;;;;;;9.00;8.03;;;;;;;;;;5062931;28;20898;-77
2022/06/30 00:49:08;;;;;;;10.63;8.83;;;;;;;;;;5072640;28;20464;-77
2022/06/30 00:51:35;;;;;;;8.90;8.03;;;;;;;;;;5072547;28;20470;-78
2022/06/30 00:54:03;;;;;;;8.40;7.70;;;;;;;;;;5061675;28;20445;-77
2022/06/30 00:56:31;;;;;;;9.40;8.60;;;;;;;;;;5061702;28;20437;-77
2022/06/30 00:59:00;;;;;;;8.87;8.07;;;;;;;;;;5060013;28;20941;-78
2022/06/30 01:01:27;;;;;;;9.23;8.43;;;;;;;;;;5057632;28;20531;-77
2022/06/30 01:03:56;;;;;;;9.60;8.80;;;;;;;;;;5057768;28;20503;-77
2022/06/30 01:06:24;;;;;;;9.27;8.57;;;;;;;;;;5053233;28;21085;-78
2022/06/30 01:08:51;;;;;;;8.90;8.10;;;;;;;;;;5053489;28;20446;-77
2022/06/30 01:14:03;;;;;;;9.27;8.57;;;;;;;;;;5053043;28;20401;-77
2022/06/30 01:16:31;;;;;;;9.37;8.50;;;;;;;;;;5053347;28;20441;-77
2022/06/30 01:18:58;;;;;;;11.13;10.13;;;;;;;;;;5053465;28;20495;-77
2022/06/30 01:21:29;;;;;;;7.63;7.13;;;;;;;;;;5053116;28;20476;-77
2022/06/30 01:23:58;;;;;;;9.33;8.43;;;;;;;;;;5053029;28;20484;-78
2022/06/30 01:26:25;;;;;;;9.30;8.50;;;;;;;;;;5052927;28;20473;-77
2022/06/30 01:28:52;;;;;;;9.27;8.57;;;;;;;;;;5053045;28;20449;-78
2022/06/30 01:31:19;;;;;;;11.00;10.20;;;;;;;;;;5052973;28;20465;-77
2022/06/30 01:33:46;;;;;;;10.33;9.50;;;;;;;;;;5052263;28;20456;-78
2022/06/30 01:36:13;;;;;;;10.20;9.50;;;;;;;;;;5052469;28;20445;-78
2022/06/30 01:38:42;;;;;;;10.17;9.43;;;;;;;;;;5053271;28;20471;-77
2022/06/30 01:41:09;;;;;;;7.87;7.20;;;;;;;;;;5053534;28;20496;-78
2022/06/30 01:43:36;;;;;;;8.23;7.37;;;;;;;;;;5052786;28;20449;-77
2022/06/30 01:46:03;;;;;;;8.67;8.07;;;;;;;;;;5052788;28;20445;-78
2022/06/30 01:48:30;;;;;;;7.60;6.90;;;;;;;;;;5052876;28;20537;-78
2022/06/30 01:50:57;;;;;;;6.90;6.30;;;;;;;;;;5053018;28;20968;-78
2022/06/30 01:53:24;;;;;;;7.23;6.73;;;;;;;;;;5052640;28;20501;-76
2022/06/30 01:55:52;;;;;;;7.87;7.17;;;;;;;;;;5052575;28;21000;-78
2022/06/30 01:58:20;;;;;;;6.80;6.37;;;;;;;;;;5052337;28;20441;-77
2022/06/30 02:00:47;;;;;;;7.57;6.97;;;;;;;;;;5052361;28;20465;-77
2022/06/30 02:03:14;;;;;;;6.80;6.30;;;;;;;;;;5052116;28;20429;-77
2022/06/30 02:05:41;;;;;;;7.50;6.90;;;;;;;;;;5052219;28;20446;-78
2022/06/30 02:08:08;;;;;;;7.80;7.20;;;;;;;;;;5049675;28;21022;-78
2022/06/30 02:10:35;;;;;;;7.43;6.83;;;;;;;;;;5032530;28;20438;-77
2022/06/30 02:13:05;;;;;;;7.60;7.00;;;;;;;;;;5031616;28;20496;-77
2022/06/30 02:15:33;;;;;;;7.50;7.00;;;;;;;;;;5032376;28;20442;-78
2022/06/30 02:18:01;;;;;;;8.13;7.47;;;;;;;;;;5031964;28;20533;-78
2022/06/30 02:20:28;;;;;;;10.63;6.90;;;;;;;;;;5032445;28;20461;-77
2022/06/30 02:22:56;;;;;;;7.93;7.33;;;;;;;;;;5032697;28;20524;-77
2022/06/30 02:25:24;;;;;;;8.90;6.93;;;;;;;;;;5032557;28;20512;-77
2022/06/30 02:27:51;;;;;;;8.13;7.53;;;;;;;;;;5032924;28;21048;-77
2022/06/30 02:30:19;;;;;;;7.73;7.03;;;;;;;;;;5039823;28;20966;-77
2022/06/30 02:32:47;;;;;;;8.13;7.20;;;;;;;;;;5036307;28;20535;-77
2022/06/30 02:35:14;;;;;;;8.57;7.10;;;;;;;;;;5031190;28;20473;-78
2022/06/30 02:37:41;;;;;;;7.47;6.87;;;;;;;;;;5031062;28;20442;-77
2022/06/30 02:40:09;;;;;;;7.80;7.20;;;;;;;;;;5031008;28;20446;-77
2022/06/30 02:42:36;;;;;;;10.60;7.47;;;;;;;;;;5030167;28;20470;-78
2022/06/30 02:45:03;;;;;;;7.80;6.93;;;;;;;;;;5030616;28;20454;-77
2022/06/30 02:47:32;;;;;;;7.50;7.00;;;;;;;;;;5030461;28;20524;-77
2022/06/30 02:49:59;;;;;;;8.13;7.43;;;;;;;;;;5030704;28;20492;-77
2022/06/30 02:52:26;;;;;;;8.50;7.80;;;;;;;;;;5030478;28;20463;-78
2022/06/30 02:54:53;;;;;;;7.73;7.23;;;;;;;;;;5030505;28;20516;-77
2022/06/30 02:57:21;;;;;;;8.33;7.60;;;;;;;;;;5030338;28;20812;-79
2022/06/30 02:59:48;;;;;;;8.07;7.47;;;;;;;;;;5031084;28;20526;-77
2022/06/30 03:02:15;;;;;;;9.23;8.20;;;;;;;;;;5030414;28;20830;-78
2022/06/30 03:04:43;;;;;;;8.70;7.83;;;;;;;;;;5030297;28;20443;-77
2022/06/30 03:07:10;;;;;;;8.20;7.60;;;;;;;;;;5030700;28;20578;-77
2022/06/30 03:09:37;;;;;;;8.20;7.50;;;;;;;;;;5030529;28;20450;-78
2022/06/30 03:12:05;;;;;;;8.37;7.63;;;;;;;;;;5030750;28;21061;-78
2022/06/30 03:14:32;;;;;;;7.13;6.63;;;;;;;;;;5030219;28;20451;-78
2022/06/30 03:16:59;;;;;;;7.50;7.00;;;;;;;;;;5031531;28;20953;-78
2022/06/30 03:19:26;;;;;;;7.27;6.77;;;;;;;;;;5030544;28;20454;-77
2022/06/30 03:21:54;;;;;;;8.00;7.40;;;;;;;;;;5030618;28;20501;-77
2022/06/30 03:24:22;;;;;;;7.93;7.00;;;;;;;;;;5030823;28;20515;-77
2022/06/30 03:26:49;;;;;;;7.00;6.50;;;;;;;;;;5034137;28;20865;-77
2022/06/30 03:29:16;;;;;;;6.93;6.53;;;;;;;;;;5034167;28;20581;-77
2022/06/30 03:31:43;;;;;;;7.77;6.93;;;;;;;;;;5034096;28;20466;-78
2022/06/30 03:34:10;;;;;;;8.13;6.43;;;;;;;;;;5034004;28;20438;-78
2022/06/30 03:36:37;;;;;;;7.50;6.90;;;;;;;;;;5034327;28;20492;-77
2022/06/30 03:39:06;;;;;;;7.80;7.10;;;;;;;;;;5034380;28;20446;-78
2022/06/30 03:41:33;;;;;;;7.03;6.53;;;;;;;;;;5034005;28;21051;-78
2022/06/30 03:44:00;;;;;;;8.13;7.53;;;;;;;;;;5033795;28;20481;-78
2022/06/30 03:46:27;;;;;;;8.13;7.47;;;;;;;;;;5033784;28;20449;-77
2022/06/30 03:48:54;;;;;;;8.00;7.40;;;;;;;;;;5033807;28;20478;-78
2022/06/30 03:51:21;;;;;;;7.63;7.13;;;;;;;;;;5033962;28;20555;-78
2022/06/30 03:53:48;;;;;;;8.30;7.47;;;;;;;;;;5033296;28;20446;-77
2022/06/30 03:56:16;;;;;;;7.50;6.93;;;;;;;;;;5033507;28;20942;-78
2022/06/30 03:58:43;;;;;;;9.03;7.00;;;;;;;;;;5033488;28;20931;-78
2022/06/30 04:01:10;;;;;;;8.53;7.93;;;;;;;;;;5033888;28;20469;-78
2022/06/30 04:03:37;;;;;;;8.80;8.07;;;;;;;;;;5033183;28;21016;-78
2022/06/30 04:06:04;;;;;;;8.77;8.07;;;;;;;;;;5033832;28;20496;-78
2022/06/30 04:08:31;;;;;;;9.17;8.40;;;;;;;;;;5033769;28;20613;-78
2022/06/30 04:10:58;;;;;;;9.00;8.40;;;;;;;;;;5033778;28;20516;-78
2022/06/30 04:13:27;;;;;;;8.57;7.70;;;;;;;;;;5033221;28;20857;-78
2022/06/30 04:15:55;;;;;;;10.00;9.30;;;;;;;;;;5033732;28;20442;-77
2022/06/30 04:18:22;;;;;;;9.30;8.60;;;;;;;;;;5033570;28;20525;-78
2022/06/30 04:20:49;;;;;;;10.93;9.10;;;;;;;;;;5033153;28;20910;-78
2022/06/30 04:23:16;;;;;;;10.20;9.37;;;;;;;;;;5032685;28;20974;-77
2022/06/30 04:25:43;;;;;;;10.03;9.33;;;;;;;;;;5033040;28;20446;-77
2022/06/30 04:28:10;;;;;;;10.77;9.77;;;;;;;;;;5032636;28;21055;-77
2022/06/30 04:33:23;;;;;;;11.30;10.50;;;;;;;;;;5032913;28;20406;-77
2022/06/30 04:35:50;;;;;;;10.93;10.03;;;;;;;;;;5035079;28;20504;-77
2022/06/30 04:38:17;;;;;;;11.97;10.93;;;;;;;;;;5048849;28;20442;-79
2022/06/30 04:43:29;;;;;;;10.23;9.30;;;;;;;;;;5052700;28;20487;-77
2022/06/30 04:45:57;;;;;;;10.60;9.70;;;;;;;;;;5049855;28;20882;-78
2022/06/30 04:48:24;;;;;;;10.77;8.87;;;;;;;;;;5049400;28;20477;-78
2022/06/30 04:50:51;;;;;;;8.90;8.10;;;;;;;;;;5046451;28;20528;-77
2022/06/30 04:53:18;;;;;;;10.67;8.20;;;;;;;;;;5032485;28;20450;-77
2022/06/30 04:55:45;;;;;;;8.30;7.60;;;;;;;;;;5033433;28;20469;-79
2022/06/30 04:58:13;;;;;;;8.80;7.90;;;;;;;;;;5040621;28;20917;-77
2022/06/30 05:00:40;;;;;;;10.60;8.40;;;;;;;;;;5053014;28;20465;-77
2022/06/30 05:03:08;;;;;;;18.33;16.63;;;;;;;;;;5052871;28;20495;-78
2022/06/30 05:05:35;;;;;;;9.13;8.30;;;;;;;;;;5052855;28;20442;-78
2022/06/30 05:08:02;;;;;;;11.37;10.33;;;;;;;;;;5049521;28;20477;-76
2022/06/30 05:10:29;;;;;;;13.20;11.97;;;;;;;;;;5044179;28;20450;-77
2022/06/30 05:12:56;;;;;;;10.90;9.90;;;;;;;;;;5041659;28;20933;-76
2022/06/30 05:15:23;;;;;;;10.90;9.87;;;;;;;;;;5052340;28;20495;-78
2022/06/30 05:17:50;;;;;;;12.17;10.97;;;;;;;;;;5052577;28;20445;-77
2022/06/30 05:20:18;;;;;;;12.67;11.47;;;;;;;;;;5052272;28;20842;-78
2022/06/30 05:22:45;;;;;;;13.00;10.90;;;;;;;;;;5052214;28;20473;-78
2022/06/30 05:27:57;;;;;;;13.33;9.83;;;;;;;;;;5051863;28;20554;-77
2022/06/30 05:30:24;;;;;;;12.43;9.93;;;;;;;;;;5051826;28;20453;-78
2022/06/30 05:32:51;;;;;;;12.80;10.20;;;;;;;;;;5051579;28;20461;-77
2022/06/30 05:35:19;;;;;;;10.63;9.47;;;;;;;;;;5051660;28;20464;-78
2022/06/30 05:37:46;;;;;;;10.23;9.33;;;;;;;;;;5051915;28;20445;-76
2022/06/30 05:40:14;;;;;;;10.93;9.83;;;;;;;;;;5051803;28;20456;-78
2022/06/30 05:42:41;;;;;;;10.87;9.87;;;;;;;;;;5051077;28;20481;-78
2022/06/30 05:45:08;;;;;;;11.50;10.50;;;;;;;;;;5051534;28;20523;-78
2022/06/30 05:47:35;;;;;;;14.83;9.80;;;;;;;;;;5050973;28;20489;-77
2022/06/30 05:50:02;;;;;;;11.30;9.87;;;;;;;;;;5051114;28;20502;-77
2022/06/30 05:52:30;;;;;;;13.27;9.33;;;;;;;;;;5051222;28;20457;-77
2022/06/30 05:54:57;;;;;;;10.47;9.57;;;;;;;;;;5051176;28;20511;-77
2022/06/30 05:57:24;;;;;;;11.13;9.50;;;;;;;;;;5050682;28;20503;-78
2022/06/30 05:59:51;;;;;;;13.60;10.07;;;;;;;;;;5051816;28;20856;-77
2022/06/30 06:02:18;;;;;;;10.60;9.20;;;;;;;;;;5051049;28;20519;-77
2022/06/30 06:04:45;;;;;;;11.47;10.47;;;;;;;;;;5050928;28;20957;-78
2022/06/30 06:07:12;;;;;;;10.90;9.93;;;;;;;;;;5050899;28;20491;-78
2022/06/30 06:09:41;;;;;;;12.43;10.90;;;;;;;;;;5036526;28;20482;-77
2022/06/30 06:12:08;;;;;;;11.57;10.33;;;;;;;;;;5031389;28;20537;-77
2022/06/30 06:14:35;;;;;;;11.33;10.20;;;;;;;;;;5035674;28;20450;-77
2022/06/30 06:17:02;;;;;;;12.40;10.20;;;;;;;;;;5040071;28;20859;-77
2022/06/30 06:19:29;;;;;;;10.83;9.83;;;;;;;;;;5032357;28;20944;-77
2022/06/30 06:21:56;;;;;;;10.10;9.10;;;;;;;;;;5035569;28;20469;-79
2022/06/30 06:24:23;;;;;;;13.70;11.00;;;;;;;;;;5035981;28;20449;-78
2022/06/30 06:26:52;;;;;;;11.17;10.17;;;;;;;;;;5052838;28;20453;-77
2022/06/30 06:29:19;;;;;;;11.70;10.73;;;;;;;;;;5056467;28;20555;-77
2022/06/30 06:31:47;;;;;;;11.97;10.77;;;;;;;;;;5073009;28;20469;-78
2022/06/30 06:34:14;;;;;;;11.20;10.30;;;;;;;;;;5059587;28;20453;-77
2022/06/30 06:36:41;;;;;;;12.43;11.27;;;;;;;;;;5057283;28;20860;-78
2022/06/30 06:39:08;;;;;;;11.70;10.60;;;;;;;;;;5052929;28;20442;-77
2022/06/30 06:41:35;;;;;;;11.60;10.70;;;;;;;;;;5051819;28;20902;-78
2022/06/30 06:44:03;;;;;;;11.13;10.00;;;;;;;;;;5051801;28;20449;-77
2022/06/30 06:46:30;;;;;;;10.13;9.23;;;;;;;;;;5052503;28;20500;-78
2022/06/30 06:48:59;;;;;;;10.47;9.50;;;;;;;;;;5051640;28;20489;-77
2022/06/30 06:51:26;;;;;;;10.17;9.17;;;;;;;;;;5051054;28;20469;-77
2022/06/30 06:53:53;;;;;;;12.17;10.87;;;;;;;;;;5050671;28;20598;-78
2022/06/30 06:56:20;;;;;;;11.40;10.30;;;;;;;;;;5048943;28;20454;-77
2022/06/30 06:58:48;;;;;;;11.83;10.93;;;;;;;;;;5051362;28;20857;-78
2022/06/30 07:01:16;;;;;;;11.73;9.90;;;;;;;;;;5054507;28;20465;-77
2022/06/30 07:03:43;;;;;;;10.60;9.70;;;;;;;;;;5054600;28;20815;-77
2022/06/30 07:06:10;;;;;;;11.00;9.63;;;;;;;;;;5054672;28;20442;-77
2022/06/30 07:08:38;;;;;;;10.00;8.63;;;;;;;;;;5048549;28;20539;-78
2022/06/30 07:11:05;;;;;;;10.00;9.27;;;;;;;;;;5034748;28;20516;-77
2022/06/30 07:13:35;;;;;;;10.20;9.20;;;;;;;;;;5049638;28;20449;-77
2022/06/30 07:16:02;;;;;;;11.23;10.10;;;;;;;;;;5054452;28;20438;-78
2022/06/30 07:18:30;;;;;;;9.10;8.27;;;;;;;;;;5054323;28;20519;-79
2022/06/30 07:20:58;;;;;;;9.73;8.93;;;;;;;;;;5053715;28;20519;-79
2022/06/30 07:23:25;;;;;;;10.70;9.07;;;;;;;;;;5054571;28;20456;-77
2022/06/30 07:25:52;;;;;;;9.37;8.53;;;;;;;;;;5054593;28;20986;-78
2022/06/30 07:28:19;;;;;;;9.37;8.47;;;;;;;;;;5053921;28;20481;-78
2022/06/30 07:30:46;;;;;;;9.27;8.37;;;;;;;;;;5053918;28;20475;-78
2022/06/30 07:33:13;;;;;;;9.97;9.00;;;;;;;;;;5053158;28;20449;-78
2022/06/30 07:35:41;;;;;;;9.30;8.40;;;;;;;;;;5054139;28;20508;-78
2022/06/30 07:38:08;;;;;;;9.37;8.57;;;;;;;;;;5054632;28;20541;-78
2022/06/30 07:40:36;;;;;;;11.43;8.80;;;;;;;;;;5054032;28;20449;-77
2022/06/30 07:43:03;;;;;;;9.00;8.30;;;;;;;;;;5054133;28;20449;-78
2022/06/30 07:45:30;;;;;;;9.07;8.27;;;;;;;;;;5053939;28;20445;-76
2022/06/30 07:47:57;;;;;;;10.27;8.23;;;;;;;;;;5053499;28;20445;-78
2022/06/30 07:50:24;;;;;;;10.50;7.60;;;;;;;;;;5053962;28;20483;-77
2022/06/30 07:52:53;;;;;;;8.43;7.73;;;;;;;;;;5053421;28;20467;-78
2022/06/30 07:55:20;;;;;;;8.30;7.70;;;;;;;;;;5051988;28;20441;-77
2022/06/30 07:57:48;;;;;;;8.00;7.30;;;;;;;;;;5046473;28;20956;-76
2022/06/30 08:00:16;;;;;;;8.70;8.10;;;;;;;;;;5051470;28;20433;-78
2022/06/30 08:02:44;;;;;;;8.20;7.00;;;;;;;;;;5043800;28;20830;-78
2022/06/30 08:05:11;;;;;;;7.60;7.00;;;;;;;;;;5054217;28;20451;-79
2022/06/30 08:07:38;;;;;;;8.57;7.70;;;;;;;;;;5053595;28;20440;-78
2022/06/30 08:10:07;;;;;;;8.37;7.77;;;;;;;;;;5052923;28;20481;-79
2022/06/30 08:12:34;;;;;;;8.73;7.93;;;;;;;;;;5053457;28;21056;-77
2022/06/30 08:15:02;;;;;;;8.63;7.80;;;;;;;;;;5053338;28;21010;-78
2022/06/30 08:17:30;;;;;;;7.67;7.07;;;;;;;;;;5053288;28;20937;-78
2022/06/30 08:19:57;;;;;;;8.03;7.53;;;;;;;;;;5053702;28;20446;-78
2022/06/30 08:22:24;;;;;;;8.27;7.60;;;;;;;;;;5053061;28;20461;-78
2022/06/30 08:24:52;;;;;;;7.83;7.10;;;;;;;;;;5053070;28;20496;-76
2022/06/30 08:27:20;;;;;;;7.30;6.70;;;;;;;;;;5053256;28;20511;-79
2022/06/30 08:29:47;;;;;;;7.53;6.83;;;;;;;;;;5053193;28;20481;-79
2022/06/30 08:32:14;;;;;;;8.13;7.53;;;;;;;;;;5052630;28;21007;-79
2022/06/30 08:34:41;;;;;;;8.90;8.27;;;;;;;;;;5053162;28;20442;-78
2022/06/30 08:37:09;;;;;;;8.93;8.10;;;;;;;;;;5053235;28;20560;-80
2022/06/30 08:42:22;;;;;;;10.43;7.47;;;;;;;;;;5052670;28;20461;-77
2022/06/30 08:45:13;;;;;;;8.93;7.43;;;;;;;;;;5052583;28;20441;-78
2022/06/30 08:47:37;;;;;;;8.43;7.07;;;;;;;;;;5053007;28;20445;-79
2022/06/30 08:50:04;;;;;;;7.83;7.17;;;;;;;;;;5052700;28;20479;-79
2022/06/30 08:52:33;;;;;;;6.67;6.03;;;;;;;;;;5052357;28;20523;-79
2022/06/30 08:55:01;;;;;;;6.90;6.30;;;;;;;;;;5054982;28;20841;-80
2022/06/30 08:57:32;;;;;;;7.47;6.70;;;;;;;;;;5051242;28;20520;-79
2022/06/30 08:59:59;;;;;;;7.30;6.47;;;;;;;;;;5037439;28;20465;-77
2022/06/30 09:02:26;;;;;;;8.73;7.93;;;;;;;;;;5049444;28;20877;-78
2022/06/30 09:04:54;;;;;;;6.80;6.20;;;;;;;;;;5052949;28;20862;-79
2022/06/30 09:07:21;;;;;;;6.47;5.80;;;;;;;;;;5052516;28;20575;-78
2022/06/30 09:09:48;;;;;;;5.90;5.50;;;;;;;;;;5053064;28;20481;-78
2022/06/30 09:12:15;;;;;;;7.27;5.97;;;;;;;;;;5052270;28;20519;-78
2022/06/30 09:14:46;;;;;;;6.83;6.23;;;;;;;;;;5050079;28;20449;-79
2022/06/30 09:17:14;;;;;;;6.80;6.20;;;;;;;;;;5052509;28;20450;-76
2022/06/30 09:19:51;;;;;;;9.10;5.93;;;;;;;;;;5045892;28;20965;-78
2022/06/30 09:22:19;;;;;;;5.97;5.43;;;;;;;;;;5041368;28;20519;-77
2022/06/30 09:24:46;;;;;;;5.57;5.17;;;;;;;;;;5045695;28;20945;-78
2022/06/30 09:27:16;;;;;;;6.10;5.70;;;;;;;;;;5047548;28;20438;-78
2022/06/30 09:29:52;;;;;;;6.23;5.60;;;;;;;;;;5052597;28;20482;-77
2022/06/30 09:32:19;;;;;;;7.23;6.27;;;;;;;;;;5052807;28;20523;-79
2022/06/30 09:34:46;;;;;;;6.00;5.43;;;;;;;;;;5052855;28;20476;-77
2022/06/30 09:37:17;;;;;;;10.00;5.17;;;;;;;;;;5053205;28;20851;-77
2022/06/30 09:39:45;;;;;;;6.80;4.83;;;;;;;;;;5052805;28;20864;-77
2022/06/30 09:42:12;;;;;;;5.87;5.47;;;;;;;;;;5052915;28;20920;-77
2022/06/30 09:44:39;;;;;;;6.13;5.40;;;;;;;;;;5052894;28;20442;-77
2022/06/30 09:47:08;;;;;;;5.77;5.03;;;;;;;;;;5046465;28;20472;-77
2022/06/30 09:49:36;;;;;;;6.37;5.87;;;;;;;;;;5052805;28;20484;-78
2022/06/30 09:52:03;;;;;;;7.70;5.30;;;;;;;;;;5052798;28;21027;-77
2022/06/30 09:54:34;;;;;;;6.17;5.67;;;;;;;;;;5045435;28;21101;-77
2022/06/30 09:57:02;;;;;;;5.90;5.40;;;;;;;;;;5048989;28;20529;-77
2022/06/30 09:59:29;;;;;;;5.60;5.20;;;;;;;;;;5043446;28;20447;-78
2022/06/30 10:01:56;;;;;;;5.40;5.00;;;;;;;;;;5056670;28;20462;-76
2022/06/30 10:04:25;;;;;;;6.33;5.30;;;;;;;;;;5066546;28;20448;-77
2022/06/30 10:06:53;;;;;;;5.80;5.30;;;;;;;;;;5057153;28;20445;-77
2022/06/30 10:09:20;;;;;;;6.20;5.27;;;;;;;;;;5051928;28;20579;-78
2022/06/30 10:11:50;;;;;;;4.83;4.43;;;;;;;;;;5051640;28;20540;-77
2022/06/30 10:14:17;;;;;;;5.20;4.77;;;;;;;;;;5048987;28;20975;-77
2022/06/30 10:16:45;;;;;;;4.83;4.43;;;;;;;;;;5052152;28;20499;-77
2022/06/30 10:19:13;;;;;;;5.43;5.00;;;;;;;;;;5051890;28;20475;-78
2022/06/30 10:21:42;;;;;;;6.47;5.10;;;;;;;;;;5052121;28;20461;-78
2022/06/30 10:24:09;;;;;;;5.70;4.67;;;;;;;;;;5051339;28;20535;-77
2022/06/30 10:29:21;;;;;;;5.47;5.00;;;;;;;;;;5050765;28;20464;-77
2022/06/30 10:31:51;;;;;;;4.30;4.10;;;;;;;;;;5051899;28;20523;-78
2022/06/30 10:34:22;;;;;;;5.90;4.33;;;;;;;;;;5051591;28;20473;-78
2022/06/30 10:36:53;;;;;;;4.00;3.70;;;;;;;;;;5051686;28;20442;-78
2022/06/30 10:39:22;;;;;;;3.90;3.60;;;;;;;;;;5051718;28;20442;-78
2022/06/30 10:41:49;;;;;;;3.90;3.60;;;;;;;;;;5052182;28;20526;-78
2022/06/30 10:44:22;;;;;;;5.53;3.90;;;;;;;;;;5051609;28;20433;-81
2022/06/30 10:47:05;;;;;;;6.07;4.23;;;;;;;;;;5052021;28;20441;-78
2022/06/30 10:49:33;;;;;;;5.07;4.10;;;;;;;;;;5051695;28;20542;-78
2022/06/30 10:52:15;;;;;;;4.67;4.30;;;;;;;;;;5048257;28;20465;-79
2022/06/30 10:54:45;;;;;;;8.23;4.27;;;;;;;;;;5045242;28;20434;-77
2022/06/30 10:57:13;;;;;;;4.50;4.10;;;;;;;;;;5051131;28;20880;-79
2022/06/30 10:59:41;;;;;;;4.27;3.80;;;;;;;;;;5051541;28;20469;-78
2022/06/30 11:02:25;;;;;;;4.67;4.27;;;;;;;;;;5052241;28;20992;-78
2022/06/30 11:04:52;;;;;;;5.33;3.90;;;;;;;;;;5050658;28;20557;-78
2022/06/30 11:07:20;;;;;;;4.23;3.67;;;;;;;;;;5051736;28;20495;-77
2022/06/30 11:10:05;;;;;;;4.30;4.10;;;;;;;;;;5035980;28;20847;-78
2022/06/30 11:12:51;;;;;;;4.10;3.80;;;;;;;;;;5031394;28;20470;-77
2022/06/30 11:15:20;;;;;;;3.67;3.40;;;;;;;;;;5031394;28;20808;-77
2022/06/30 11:17:48;;;;;;;4.73;4.30;;;;;;;;;;5031942;28;20449;-79
2022/06/30 11:20:15;;;;;;;4.70;4.30;;;;;;;;;;5032050;28;20438;-78
2022/06/30 11:22:44;;;;;;;4.23;3.83;;;;;;;;;;5030954;28;20993;-78
2022/06/30 11:27:17;;;;;;;4.40;4.10;;;;;;;;;;5031478;28;20453;-79
2022/06/30 11:27:58;;;;;;;4.63;3.90;;;;;;;;;;5032046;28;20442;-78
2022/06/30 11:30:29;;;;;;;4.00;3.70;;;;;;;;;;5031586;28;20478;-78
2022/06/30 11:32:56;;;;;;;4.00;3.70;;;;;;;;;;5031901;28;20450;-77
2022/06/30 11:35:26;;;;;;;5.33;3.80;;;;;;;;;;5030915;28;20824;-78
2022/06/30 11:37:53;;;;;;;4.47;3.80;;;;;;;;;;5031198;28;20465;-76
2022/06/30 11:40:20;;;;;;;3.90;3.60;;;;;;;;;;5033602;28;20449;-77
2022/06/30 11:42:49;;;;;;;4.60;3.70;;;;;;;;;;5048916;28;20846;-77
2022/06/30 11:45:19;;;;;;;3.73;3.50;;;;;;;;;;5050641;28;20971;-77
2022/06/30 11:47:53;;;;;;;7.30;3.40;;;;;;;;;;5055442;28;20507;-77
2022/06/30 11:50:21;;;;;;;5.33;3.80;;;;;;;;;;5055996;28;20476;-77
2022/06/30 11:52:48;;;;;;;6.23;3.80;;;;;;;;;;5057566;28;20766;-77
2022/06/30 11:55:17;;;;;;;4.10;3.83;;;;;;;;;;5054640;28;20446;-78
2022/06/30 11:57:45;;;;;;;4.37;3.97;;;;;;;;;;5054256;28;20855;-77
2022/06/30 12:00:13;;;;;;;6.10;4.30;;;;;;;;;;5054457;28;20502;-77
2022/06/30 12:02:41;;;;;;;4.03;3.73;;;;;;;;;;5055208;28;20465;-78
2022/06/30 12:05:11;;;;;;;4.70;3.90;;;;;;;;;;5054680;28;21102;-77
2022/06/30 12:07:38;;;;;;;3.93;3.63;;;;;;;;;;5054769;28;20544;-76
2022/06/30 12:10:06;;;;;;;3.93;3.60;;;;;;;;;;5036237;28;20520;-77
2022/06/30 12:12:35;;;;;;;4.33;3.93;;;;;;;;;;5033914;28;20516;-77
2022/06/30 12:15:04;;;;;;;4.03;3.73;;;;;;;;;;5034559;28;20446;-78
2022/06/30 12:17:32;;;;;;;4.17;3.53;;;;;;;;;;5034504;28;20502;-78
2022/06/30 12:20:00;;;;;;;4.43;3.97;;;;;;;;;;5034056;28;20485;-77
2022/06/30 12:22:28;;;;;;;5.10;4.00;;;;;;;;;;5033986;28;20513;-78
2022/06/30 12:24:55;;;;;;;4.47;4.00;;;;;;;;;;5034088;28;20443;-77
2022/06/30 12:27:26;;;;;;;4.33;3.83;;;;;;;;;;5034613;28;20443;-78
2022/06/30 12:29:56;;;;;;;4.80;4.40;;;;;;;;;;5035305;28;20478;-76
2022/06/30 12:32:23;;;;;;;4.30;3.90;;;;;;;;;;5036021;28;20565;-78
2022/06/30 12:34:51;;;;;;;3.90;3.60;;;;;;;;;;5035815;28;20546;-77
2022/06/30 12:37:26;;;;;;;3.93;3.73;;;;;;;;;;5036033;28;20446;-78
2022/06/30 12:39:55;;;;;;;5.43;3.70;;;;;;;;;;5036092;28;20438;-77
2022/06/30 12:42:23;;;;;;;5.33;3.43;;;;;;;;;;5036034;28;20504;-77
2022/06/30 12:44:50;;;;;;;5.70;3.70;;;;;;;;;;5036468;28;20446;-76
2022/06/30 12:47:17;;;;;;;4.20;3.70;;;;;;;;;;5036458;28;20493;-78
2022/06/30 12:49:45;;;;;;;3.53;3.23;;;;;;;;;;5034758;28;20550;-78
2022/06/30 12:52:15;;;;;;;3.57;3.30;;;;;;;;;;5034292;28;20471;-77
2022/06/30 12:54:53;;;;;;;3.47;3.10;;;;;;;;;;5033583;28;20863;-78
2022/06/30 12:57:21;;;;;;;4.10;3.70;;;;;;;;;;5033219;28;20446;-78
2022/06/30 12:59:50;;;;;;;3.70;3.40;;;;;;;;;;5033449;28;20496;-78
2022/06/30 13:02:17;;;;;;;3.40;3.10;;;;;;;;;;5033441;28;20489;-78
2022/06/30 13:04:48;;;;;;;3.00;2.80;;;;;;;;;;5033022;28;20524;-77
2022/06/30 13:07:16;;;;;;;3.40;3.17;;;;;;;;;;5033572;28;20447;-77
2022/06/30 13:09:46;;;;;;;3.80;3.40;;;;;;;;;;5033311;28;20465;-77
2022/06/30 13:12:14;;;;;;;6.77;4.07;;;;;;;;;;5033115;28;20565;-78
2022/06/30 13:14:43;;;;;;;7.43;3.37;;;;;;;;;;5033188;28;20534;-78
2022/06/30 13:17:10;;;;;;;4.23;3.57;;;;;;;;;;5032861;28;20450;-78
2022/06/30 13:19:37;;;;;;;5.47;3.83;;;;;;;;;;5033344;28;20496;-78
2022/06/30 13:22:05;;;;;;;3.63;3.40;;;;;;;;;;5033127;28;20463;-77
2022/06/30 13:24:32;;;;;;;4.13;3.73;;;;;;;;;;5032807;28;20442;-78
2022/06/30 13:27:02;;;;;;;3.70;3.37;;;;;;;;;;5032777;28;20852;-78
2022/06/30 13:29:29;;;;;;;3.70;3.40;;;;;;;;;;5033456;28;20447;-77
2022/06/30 13:31:58;;;;;;;3.70;3.50;;;;;;;;;;5033257;28;20487;-78
2022/06/30 13:34:25;;;;;;;3.93;3.57;;;;;;;;;;5033105;28;20534;-78
2022/06/30 13:36:53;;;;;;;3.80;3.50;;;;;;;;;;5032825;28;20875;-77
2022/06/30 13:39:20;;;;;;;3.83;3.53;;;;;;;;;;5033074;28;20458;-79
2022/06/30 13:41:48;;;;;;;4.37;3.47;;;;;;;;;;5033352;28;20474;-78
2022/06/30 13:44:16;;;;;;;4.93;3.27;;;;;;;;;;5033054;28;20442;-78
2022/06/30 13:46:43;;;;;;;4.67;3.67;;;;;;;;;;5032699;28;21001;-78
2022/06/30 13:49:11;;;;;;;4.03;3.60;;;;;;;;;;5032869;28;20450;-79
2022/06/30 13:51:39;;;;;;;3.63;3.33;;;;;;;;;;5032752;28;20831;-78
2022/06/30 13:54:06;;;;;;;4.43;4.13;;;;;;;;;;5032719;28;20445;-78
2022/06/30 13:56:34;;;;;;;3.80;3.50;;;;;;;;;;5032746;28;20441;-78
2022/06/30 13:59:01;;;;;;;4.00;3.70;;;;;;;;;;5033208;28;20508;-77
2022/06/30 14:01:28;;;;;;;4.00;3.70;;;;;;;;;;5032477;28;20466;-77
2022/06/30 14:03:55;;;;;;;3.97;3.67;;;;;;;;;;5032298;28;20879;-77
2022/06/30 14:06:23;;;;;;;4.60;3.90;;;;;;;;;;5033091;28;20450;-78
2022/06/30 14:08:50;;;;;;;4.60;4.20;;;;;;;;;;5039784;28;20491;-78
2022/06/30 14:11:17;;;;;;;4.33;3.87;;;;;;;;;;5052238;28;20481;-77
2022/06/30 14:13:45;;;;;;;4.80;4.17;;;;;;;;;;5052816;28;20445;-78
2022/06/30 14:16:13;;;;;;;5.13;4.50;;;;;;;;;;5052406;28;20453;-77
2022/06/30 14:18:41;;;;;;;4.87;4.47;;;;;;;;;;5052219;28;20446;-77
2022/06/30 14:21:08;;;;;;;7.00;4.70;;;;;;;;;;5052037;28;20468;-77
2022/06/30 14:23:37;;;;;;;5.90;4.57;;;;;;;;;;5051915;28;20591;-77
2022/06/30 14:26:04;;;;;;;4.40;3.97;;;;;;;;;;5051968;28;20448;-77
2022/06/30 14:28:31;;;;;;;4.70;4.17;;;;;;;;;;5052122;28;20441;-77
2022/06/30 14:30:58;;;;;;;6.73;4.00;;;;;;;;;;5051862;28;20512;-77
2022/06/30 14:33:25;;;;;;;7.00;4.30;;;;;;;;;;5051405;28;20452;-77
2022/06/30 14:35:52;;;;;;;4.60;4.20;;;;;;;;;;5051394;28;20453;-77
2022/06/30 14:38:19;;;;;;;4.37;4.03;;;;;;;;;;5052231;28;20445;-77
2022/06/30 14:40:47;;;;;;;5.47;4.83;;;;;;;;;;5051800;28;20865;-77
2022/06/30 14:43:15;;;;;;;5.00;4.20;;;;;;;;;;5051655;28;20487;-77
2022/06/30 14:45:42;;;;;;;4.47;4.10;;;;;;;;;;5051942;28;20579;-77
2022/06/30 14:48:10;;;;;;;4.97;4.67;;;;;;;;;;5052172;28;20503;-78
2022/06/30 14:50:37;;;;;;;4.10;3.80;;;;;;;;;;5051890;28;20478;-77
2022/06/30 14:53:04;;;;;;;5.00;4.50;;;;;;;;;;5051362;28;20555;-78
2022/06/30 14:55:31;;;;;;;7.13;4.90;;;;;;;;;;5052174;28;20446;-78
2022/06/30 14:58:00;;;;;;;5.17;4.77;;;;;;;;;;5051722;28;20439;-78
2022/06/30 15:00:27;;;;;;;7.10;5.23;;;;;;;;;;5051708;28;20499;-77